Time;durP1;ratioP1;P1;durP2;ratioP2;P2;SDS_P1;SDS_P2;PMS_P1;PMS_P2;Temp;Humidity;BMP_temperature;BMP_pressure;BME280_temperature;BME280_humidity;BME280_pressure;Samples;Min_cycle;Max_cycle;Signal;HPM_P1;HPM_P2
2022/08/13 00:01:18;;;;;;;0.20;0.20;;;20.30;99.90;;;;;;5046118;28;20413;-71
2022/08/13 00:03:44;;;;;;;0.30;0.30;;;20.20;99.90;;;;;;5026284;28;20049;-71
2022/08/13 00:06:11;;;;;;;0.35;0.30;;;20.20;99.90;;;;;;5044882;28;20053;-71
2022/08/13 00:08:39;;;;;;;0.40;0.40;;;20.10;99.90;;;;;;5011892;28;20051;-71
2022/08/13 00:11:06;;;;;;;0.20;0.20;;;20.10;99.90;;;;;;5012409;28;20358;-71
2022/08/13 00:13:33;;;;;;;0.30;0.30;;;20.00;99.90;;;;;;5027012;28;20051;-71
2022/08/13 00:15:59;;;;;;;0.30;0.30;;;20.00;99.90;;;;;;5028398;28;20056;-71
2022/08/13 00:18:26;;;;;;;0.30;0.30;;;20.00;99.90;;;;;;5028607;28;20041;-71
2022/08/13 00:20:55;;;;;;;0.45;0.40;;;19.90;99.90;;;;;;5029031;28;20053;-71
2022/08/13 00:23:23;;;;;;;0.55;0.50;;;19.90;99.90;;;;;;5025366;28;20508;-71
2022/08/13 00:25:54;;;;;;;0.47;0.47;;;19.90;99.90;;;;;;5045188;28;20049;-72
2022/08/13 00:28:22;;;;;;;0.38;0.22;;;19.90;99.90;;;;;;5028477;28;20050;-71
2022/08/13 00:30:49;;;;;;;0.30;0.30;;;19.90;99.90;;;;;;5028700;28;20029;-71
2022/08/13 00:33:19;;;;;;;0.25;0.25;;;19.80;99.90;;;;;;5060857;28;20146;-71
2022/08/13 00:35:47;;;;;;;0.32;0.32;;;19.80;99.90;;;;;;5028324;28;20105;-72
2022/08/13 00:38:23;;;;;;;0.40;0.40;;;19.80;99.90;;;;;;5044376;28;20049;-71
2022/08/13 00:40:52;;;;;;;0.45;0.43;;;19.80;99.90;;;;;;5027687;28;20049;-72
2022/08/13 00:43:18;;;;;;;0.80;0.60;;;19.80;99.90;;;;;;5023542;28;20077;-71
2022/08/13 00:45:43;;;;;;;;;;;19.80;99.90;;;;;;5049986;28;20489;-72
2022/08/13 00:50:56;;;;;;;0.75;0.60;;;19.80;99.90;;;;;;5035964;28;20060;-71
2022/08/13 00:53:23;;;;;;;0.70;0.55;;;19.80;99.90;;;;;;5056996;28;20137;-71
2022/08/13 00:55:52;;;;;;;0.43;0.40;;;19.70;99.90;;;;;;5045915;28;20053;-71
2022/08/13 00:58:19;;;;;;;0.50;0.50;;;19.70;99.90;;;;;;5011337;28;20049;-71
2022/08/13 01:00:51;;;;;;;0.50;0.50;;;19.70;99.90;;;;;;5028728;28;20045;-71
2022/08/13 01:03:18;;;;;;;0.40;0.40;;;19.70;99.90;;;;;;5026891;28;20399;-71
2022/08/13 01:05:46;;;;;;;0.30;0.30;;;19.70;99.90;;;;;;5045232;28;20436;-71
2022/08/13 01:08:16;;;;;;;0.70;0.50;;;19.70;99.90;;;;;;5061446;28;20046;-72
2022/08/13 01:10:43;;;;;;;0.40;0.40;;;19.60;99.90;;;;;;5061974;28;20041;-71
2022/08/13 01:13:11;;;;;;;0.60;0.40;;;19.60;99.90;;;;;;5025569;28;20033;-71
2022/08/13 01:15:41;;;;;;;0.60;0.40;;;19.50;99.90;;;;;;5064423;28;20056;-71
2022/08/13 01:18:12;;;;;;;0.85;0.55;;;19.50;99.90;;;;;;5030434;28;20063;-71
2022/08/13 01:20:44;;;;;;;0.50;0.47;;;19.50;99.90;;;;;;5042703;28;20143;-71
2022/08/13 01:23:10;;;;;;;0.45;0.40;;;19.50;99.90;;;;;;5029532;28;20092;-71
2022/08/13 01:25:37;;;;;;;0.63;0.50;;;19.50;99.90;;;;;;5031673;28;20049;-71
2022/08/13 01:28:03;;;;;;;0.50;0.50;;;19.50;99.90;;;;;;5031700;28;20537;-71
2022/08/13 01:30:29;;;;;;;;;;;19.50;99.90;;;;;;5032960;28;20136;-71
2022/08/13 01:32:55;;;;;;;0.63;0.60;;;19.50;99.90;;;;;;5031295;28;19999;-71
2022/08/13 01:35:22;;;;;;;0.93;0.57;;;19.50;99.90;;;;;;5047644;28;20092;-71
2022/08/13 01:37:53;;;;;;;1.75;0.60;;;19.50;99.90;;;;;;5030673;28;20080;-72
2022/08/13 01:40:19;;;;;;;0.80;0.60;;;19.50;99.90;;;;;;5029198;28;20049;-71
2022/08/13 01:42:48;;;;;;;0.88;0.70;;;19.50;99.90;;;;;;5030691;28;20041;-71
2022/08/13 01:45:14;;;;;;;0.75;0.60;;;19.50;99.90;;;;;;5024981;28;20120;-71
2022/08/13 01:50:30;;;;;;;0.70;0.70;;;19.50;99.90;;;;;;5032722;28;20056;-71
2022/08/13 01:53:02;;;;;;;1.27;0.90;;;19.50;99.90;;;;;;5030108;28;20042;-71
2022/08/13 01:55:39;;;;;;;1.30;1.00;;;19.50;99.90;;;;;;5031448;28;20041;-71
2022/08/13 01:58:06;;;;;;;;;;;19.50;99.90;;;;;;5048092;28;20037;-71
2022/08/13 02:00:32;;;;;;;1.23;0.70;;;19.50;99.90;;;;;;5046675;28;19928;-72
2022/08/13 02:03:01;;;;;;;1.42;1.02;;;19.50;99.90;;;;;;5062806;28;20049;-71
2022/08/13 02:05:27;;;;;;;2.47;1.00;;;19.50;99.90;;;;;;5030594;28;20108;-71
2022/08/13 02:07:54;;;;;;;1.20;0.90;;;19.50;99.90;;;;;;5064152;28;20045;-71
2022/08/13 02:10:21;;;;;;;0.80;0.70;;;19.50;99.90;;;;;;5031283;28;20095;-71
2022/08/13 02:12:47;;;;;;;2.17;0.70;;;19.50;99.90;;;;;;5030857;28;20105;-71
2022/08/13 02:15:15;;;;;;;0.70;0.70;;;19.40;99.90;;;;;;5062086;28;20043;-71
2022/08/13 02:17:42;;;;;;;2.50;0.77;;;19.40;99.90;;;;;;5063241;28;20048;-71
2022/08/13 02:20:17;;;;;;;0.60;0.50;;;19.30;99.90;;;;;;5063027;28;20045;-71
2022/08/13 02:22:45;;;;;;;0.77;0.60;;;19.30;99.90;;;;;;5028145;28;20776;-71
2022/08/13 02:25:12;;;;;;;0.68;0.68;;;19.30;99.90;;;;;;5028827;28;20057;-71
2022/08/13 02:27:38;;;;;;;0.93;0.68;;;19.30;99.90;;;;;;5030462;28;20045;-71
2022/08/13 02:30:07;;;;;;;1.08;0.60;;;19.30;99.90;;;;;;5063542;28;20045;-71
2022/08/13 02:32:35;;;;;;;0.50;0.50;;;19.20;99.90;;;;;;5061961;28;20038;-71
2022/08/13 02:35:02;;;;;;;0.60;0.60;;;19.20;99.90;;;;;;5046234;28;20053;-72
2022/08/13 02:37:29;;;;;;;0.55;0.50;;;19.10;99.90;;;;;;5046899;28;20453;-71
2022/08/13 02:39:55;;;;;;;0.95;0.75;;;19.10;99.90;;;;;;5064752;28;20049;-72
2022/08/13 02:42:22;;;;;;;0.52;0.52;;;19.10;99.90;;;;;;5013415;28;20045;-71
2022/08/13 02:44:50;;;;;;;0.47;0.40;;;19.10;99.90;;;;;;5011778;28;20037;-71
2022/08/13 02:47:21;;;;;;;1.08;0.68;;;19.10;99.90;;;;;;5046563;28;20091;-71
2022/08/13 02:49:51;;;;;;;0.70;0.50;;;19.00;99.90;;;;;;5046337;28;20056;-71
2022/08/13 02:52:19;;;;;;;1.20;0.60;;;19.00;99.90;;;;;;5043781;28;20045;-71
2022/08/13 02:54:47;;;;;;;1.08;0.77;;;19.00;99.90;;;;;;5028179;28;20044;-71
2022/08/13 02:57:13;;;;;;;1.05;0.60;;;19.00;99.90;;;;;;5029715;28;20374;-71
2022/08/13 02:59:41;;;;;;;1.00;0.63;;;19.00;99.90;;;;;;5062643;28;20046;-71
2022/08/13 03:02:08;;;;;;;0.70;0.65;;;19.00;99.90;;;;;;5062234;28;20171;-71
2022/08/13 03:04:35;;;;;;;1.70;0.60;;;18.90;99.90;;;;;;5062218;28;20037;-71
2022/08/13 03:07:01;;;;;;;0.55;0.50;;;18.90;99.90;;;;;;5033425;28;20045;-71
2022/08/13 03:09:28;;;;;;;0.57;0.50;;;18.90;99.90;;;;;;5064606;28;20138;-71
2022/08/13 03:11:57;;;;;;;0.88;0.60;;;18.90;99.90;;;;;;5026796;28;20068;-71
2022/08/13 03:14:24;;;;;;;2.05;0.60;;;18.90;99.90;;;;;;5028632;28;20041;-71
2022/08/13 03:16:49;;;;;;;0.47;0.40;;;18.90;99.90;;;;;;5012691;28;20120;-72
2022/08/13 03:19:15;;;;;;;;;;;18.80;99.90;;;;;;5012497;28;20176;-71
2022/08/13 03:21:45;;;;;;;0.88;0.63;;;18.90;99.90;;;;;;5064905;28;19943;-71
2022/08/13 03:24:14;;;;;;;1.10;0.80;;;18.90;99.90;;;;;;5043329;28;20432;-71
2022/08/13 03:26:40;;;;;;;0.68;0.60;;;18.90;99.90;;;;;;5082561;28;20047;-71
2022/08/13 03:29:06;;;;;;;;;;;18.80;99.90;;;;;;5084329;28;20041;-71
2022/08/13 03:31:32;;;;;;;1.40;0.80;;;18.80;99.90;;;;;;5083086;28;19951;-72
2022/08/13 03:33:58;;;;;;;;;;;18.80;99.90;;;;;;5050987;28;20041;-71
2022/08/13 03:36:26;;;;;;;0.60;0.60;;;18.80;99.90;;;;;;5083526;28;19917;-71
2022/08/13 03:38:52;;;;;;;0.50;0.50;;;18.70;99.90;;;;;;5082655;28;20132;-71
2022/08/13 03:41:17;;;;;;;;;;;18.70;99.90;;;;;;5066279;28;20148;-72
2022/08/13 03:43:47;;;;;;;0.80;0.70;;;18.70;99.90;;;;;;5083616;28;19962;-71
2022/08/13 03:46:16;;;;;;;0.57;0.50;;;18.70;99.90;;;;;;5082394;28;20144;-71
2022/08/13 03:48:41;;;;;;;0.95;0.60;;;18.70;99.90;;;;;;5049926;28;20041;-71
2022/08/13 03:51:07;;;;;;;;;;;18.70;99.90;;;;;;5033222;28;20045;-71
2022/08/13 03:53:35;;;;;;;0.73;0.60;;;18.60;99.90;;;;;;5083304;28;19920;-71
2022/08/13 03:56:01;;;;;;;0.80;0.70;;;18.60;99.90;;;;;;5083554;28;20116;-71
2022/08/13 03:58:28;;;;;;;;;;;18.50;99.90;;;;;;5049351;28;20540;-71
2022/08/13 04:00:55;;;;;;;0.60;0.60;;;18.50;99.90;;;;;;5046955;28;19943;-71
2022/08/13 04:03:28;;;;;;;1.30;0.60;;;18.50;99.90;;;;;;5081505;28;20060;-71
2022/08/13 04:06:03;;;;;;;0.50;0.50;;;18.50;99.90;;;;;;5081301;28;20037;-71
2022/08/13 04:08:34;;;;;;;1.02;0.75;;;18.40;99.90;;;;;;5082376;28;20368;-71
2022/08/13 04:11:03;;;;;;;0.65;0.60;;;18.40;99.90;;;;;;5080141;28;20083;-71
2022/08/13 04:13:36;;;;;;;0.60;0.60;;;18.40;99.90;;;;;;5048181;28;20043;-71
2022/08/13 04:16:04;;;;;;;1.05;0.57;;;18.40;99.90;;;;;;5064273;28;20634;-71
2022/08/13 04:18:33;;;;;;;0.90;0.80;;;18.40;99.90;;;;;;5050177;28;20036;-72
2022/08/13 04:20:59;;;;;;;1.02;0.52;;;18.40;99.90;;;;;;5048717;28;20045;-75
2022/08/13 04:23:25;;;;;;;;;;;18.40;99.90;;;;;;5077563;28;20061;-75
2022/08/13 04:25:51;;;;;;;0.90;0.70;;;18.40;99.90;;;;;;5056030;28;20012;-76
2022/08/13 04:28:18;;;;;;;1.23;0.80;;;18.40;99.90;;;;;;5054672;28;20538;-76
2022/08/13 04:30:44;;;;;;;0.90;0.70;;;18.40;99.90;;;;;;5030564;28;20032;-73
2022/08/13 04:33:11;;;;;;;;;;;18.30;99.90;;;;;;5077584;28;20049;-71
2022/08/13 04:35:37;;;;;;;1.05;0.80;;;18.30;99.90;;;;;;5081001;28;19921;-72
2022/08/13 04:38:05;;;;;;;1.17;0.80;;;18.40;99.90;;;;;;5081851;28;20052;-72
2022/08/13 04:40:36;;;;;;;0.80;0.70;;;18.40;99.90;;;;;;5080926;28;20048;-72
2022/08/13 04:43:02;;;;;;;1.05;0.70;;;18.40;99.90;;;;;;5081018;28;20056;-71
2022/08/13 04:45:32;;;;;;;1.95;0.70;;;18.40;99.90;;;;;;5079653;28;20044;-71
2022/08/13 04:48:04;;;;;;;0.80;0.80;;;18.40;99.90;;;;;;5048396;28;20137;-71
2022/08/13 04:50:34;;;;;;;1.42;0.80;;;18.40;99.90;;;;;;5082814;28;20111;-72
2022/08/13 04:53:00;;;;;;;0.82;0.80;;;18.40;99.90;;;;;;5052848;28;20130;-72
2022/08/13 04:55:27;;;;;;;0.75;0.68;;;18.50;99.90;;;;;;5050755;28;20055;-73
2022/08/13 04:57:54;;;;;;;0.68;0.63;;;18.50;99.90;;;;;;5068958;28;20404;-73
2022/08/13 05:00:23;;;;;;;0.60;0.50;;;18.50;99.90;;;;;;5047454;28;20091;-72
2022/08/13 05:02:48;;;;;;;0.60;0.50;;;18.50;99.90;;;;;;5089268;28;20407;-73
2022/08/13 05:05:14;;;;;;;;;;;18.50;99.90;;;;;;5052383;28;20131;-73
2022/08/13 05:07:48;;;;;;;0.68;0.55;;;18.50;99.90;;;;;;5050550;28;19921;-73
2022/08/13 05:10:13;;;;;;;2.05;0.50;;;18.50;99.90;;;;;;5085269;28;20549;-74
2022/08/13 05:12:39;;;;;;;;;;;18.50;99.90;;;;;;5052772;28;20095;-74
2022/08/13 05:15:08;;;;;;;0.75;0.60;;;18.50;99.90;;;;;;5084656;28;20364;-77
2022/08/13 05:17:34;;;;;;;0.55;0.40;;;18.50;99.90;;;;;;5050740;28;20040;-73
2022/08/13 05:20:00;;;;;;;;;;;18.60;99.90;;;;;;5084067;28;20036;-73
2022/08/13 05:22:26;;;;;;;0.40;0.30;;;18.60;99.90;;;;;;5039870;28;20658;-73
2022/08/13 05:24:52;;;;;;;0.60;0.60;;;18.70;99.90;;;;;;5028563;28;20053;-73
2022/08/13 05:27:19;;;;;;;;;;;18.70;99.90;;;;;;5033094;28;20057;-74
2022/08/13 05:29:44;;;;;;;0.57;0.52;;;18.80;99.90;;;;;;5061261;28;19936;-72
2022/08/13 05:32:10;;;;;;;;;;;18.90;99.90;;;;;;5033195;28;20041;-73
2022/08/13 05:34:37;;;;;;;1.10;0.73;;;19.00;99.80;;;;;;5030232;28;19917;-73
2022/08/13 05:37:04;;;;;;;1.00;0.70;;;19.10;99.30;;;;;;5027357;28;20057;-73
2022/08/13 05:39:30;;;;;;;0.95;0.50;;;19.10;99.20;;;;;;5065742;28;20128;-75
2022/08/13 05:41:56;;;;;;;0.93;0.70;;;19.20;99.10;;;;;;5062782;28;20052;-74
2022/08/13 05:44:22;;;;;;;;;;;19.30;98.90;;;;;;5031900;28;20045;-66
2022/08/13 05:46:49;;;;;;;1.60;0.70;;;19.40;98.60;;;;;;5031346;28;19930;-67
2022/08/13 05:49:15;;;;;;;0.60;0.55;;;19.40;98.70;;;;;;5031303;28;20059;-67
2022/08/13 05:51:44;;;;;;;1.23;0.88;;;19.50;98.70;;;;;;5031953;28;20068;-67
2022/08/13 05:54:11;;;;;;;0.90;0.60;;;19.60;98.30;;;;;;5029766;28;20106;-67
2022/08/13 05:56:37;;;;;;;0.70;0.50;;;19.60;98.30;;;;;;5030074;28;20095;-67
2022/08/13 06:04:36;;;;;;;0.40;0.40;;;19.80;98.30;;;;;;5064564;28;20053;-67
2022/08/13 06:07:02;;;;;;;;;;;19.90;98.10;;;;;;5028768;28;20049;-67
2022/08/13 06:09:27;;;;;;;0.70;0.60;;;20.00;97.60;;;;;;5031352;28;19927;-67
2022/08/13 06:11:53;;;;;;;;;;;20.20;97.80;;;;;;5031218;28;20099;-67
2022/08/13 06:14:20;;;;;;;1.80;0.73;;;20.30;97.40;;;;;;5030251;28;19957;-67
2022/08/13 06:16:48;;;;;;;0.93;0.80;;;20.40;97.50;;;;;;5029427;28;20526;-67
2022/08/13 06:19:14;;;;;;;0.60;0.50;;;20.50;97.30;;;;;;5029861;28;20499;-67
2022/08/13 06:21:40;;;;;;;;;;;20.60;97.50;;;;;;5028832;28;20061;-68
2022/08/13 06:24:05;;;;;;;0.90;0.60;;;20.80;97.10;;;;;;5063858;28;20432;-68
2022/08/13 06:26:31;;;;;;;;;;;20.90;97.00;;;;;;5029474;28;20128;-68
2022/08/13 06:29:01;;;;;;;0.70;0.60;;;21.10;96.70;;;;;;5029657;28;20311;-68
2022/08/13 06:31:28;;;;;;;1.27;0.85;;;21.30;96.50;;;;;;5029971;28;20116;-68
2022/08/13 06:33:57;;;;;;;1.65;0.70;;;21.50;96.00;;;;;;5061954;28;20458;-68
2022/08/13 06:36:29;;;;;;;0.75;0.70;;;21.90;96.00;;;;;;5027199;28;20042;-68
2022/08/13 06:39:00;;;;;;;0.88;0.70;;;22.30;94.90;;;;;;5046930;28;20531;-68
2022/08/13 06:41:28;;;;;;;0.68;0.60;;;22.40;94.80;;;;;;5030392;28;20042;-68
2022/08/13 06:43:56;;;;;;;0.50;0.50;;;22.40;95.00;;;;;;5029541;28;20099;-68
2022/08/13 06:46:31;;;;;;;0.68;0.50;;;22.50;94.90;;;;;;5027857;28;20055;-68
2022/08/13 06:49:02;;;;;;;0.88;0.60;;;22.50;95.00;;;;;;5027928;28;20037;-68
2022/08/13 06:51:28;;;;;;;0.60;0.60;;;22.70;95.10;;;;;;5061444;28;20041;-68
2022/08/13 06:53:55;;;;;;;1.40;0.60;;;22.80;94.90;;;;;;5029928;28;20041;-68
2022/08/13 06:56:23;;;;;;;1.10;0.60;;;22.90;94.80;;;;;;5030964;28;20089;-68
2022/08/13 06:58:51;;;;;;;0.90;0.57;;;23.10;94.80;;;;;;5059163;28;20056;-70
2022/08/13 07:01:23;;;;;;;0.75;0.50;;;23.20;94.40;;;;;;5028271;28;20049;-69
2022/08/13 07:03:49;;;;;;;2.83;0.77;;;23.30;94.80;;;;;;5027723;28;20049;-68
2022/08/13 07:06:17;;;;;;;0.50;0.50;;;23.60;94.70;;;;;;5024811;28;20060;-75
2022/08/13 07:08:44;;;;;;;1.38;0.70;;;23.80;94.30;;;;;;5030490;28;20071;-74
2022/08/13 07:11:22;;;;;;;1.90;0.50;;;24.00;94.40;;;;;;5045421;28;20038;-74
2022/08/13 07:13:55;;;;;;;0.90;0.60;;;24.10;94.20;;;;;;5029350;28;20052;-74
2022/08/13 07:16:24;;;;;;;1.95;0.80;;;24.40;94.20;;;;;;5029196;28;20037;-74
2022/08/13 07:18:51;;;;;;;0.60;0.60;;;24.60;93.70;;;;;;5029385;28;20122;-74
2022/08/13 07:21:20;;;;;;;1.10;0.60;;;25.10;94.30;;;;;;5014323;28;20053;-74
2022/08/13 07:23:48;;;;;;;1.15;0.70;;;25.50;93.30;;;;;;5087064;28;20127;-74
2022/08/13 07:26:16;;;;;;;2.42;0.70;;;26.10;93.00;;;;;;5052645;28;20127;-71
2022/08/13 07:28:45;;;;;;;1.75;0.60;;;26.50;92.10;;;;;;5070005;28;20040;-71
2022/08/13 07:31:13;;;;;;;1.63;0.52;;;26.90;91.90;;;;;;5053544;28;20454;-71
2022/08/13 07:33:44;;;;;;;1.40;0.63;;;27.40;91.80;;;;;;5052082;28;20046;-71
2022/08/13 07:36:14;;;;;;;2.55;0.63;;;27.60;91.40;;;;;;5069777;28;20078;-71
2022/08/13 07:38:43;;;;;;;0.77;0.65;;;28.00;90.70;;;;;;5052835;28;20126;-71
2022/08/13 07:41:10;;;;;;;1.38;0.60;;;27.90;89.50;;;;;;5033725;28;20041;-68
2022/08/13 07:43:39;;;;;;;1.80;0.70;;;28.00;88.40;;;;;;5041133;28;20436;-69
2022/08/13 07:46:11;;;;;;;0.85;0.65;;;28.10;88.40;;;;;;5086215;28;20106;-69
2022/08/13 07:48:40;;;;;;;1.13;0.52;;;28.30;88.50;;;;;;5059307;28;20150;-68
2022/08/13 07:51:18;;;;;;;0.93;0.45;;;28.60;88.80;;;;;;5059415;28;20037;-68
2022/08/13 07:53:48;;;;;;;0.68;0.50;;;28.70;88.60;;;;;;5086016;28;20052;-69
2022/08/13 07:56:28;;;;;;;0.82;0.50;;;28.90;89.00;;;;;;5048911;28;20052;-68
2022/08/13 07:59:00;;;;;;;1.75;0.50;;;29.00;88.90;;;;;;5083139;28;20040;-68
2022/08/13 08:01:46;;;;;;;0.60;0.60;;;29.10;86.70;;;;;;5051706;28;20048;-68
2022/08/13 08:04:14;;;;;;;0.52;0.52;;;29.10;87.10;;;;;;5074815;28;20529;-69
2022/08/13 08:06:41;;;;;;;1.25;0.70;;;29.10;86.10;;;;;;5051091;28;20032;-68
2022/08/13 08:09:08;;;;;;;0.75;0.60;;;29.10;86.90;;;;;;5052903;28;20119;-68
2022/08/13 08:14:19;;;;;;;0.57;0.57;;;29.20;87.00;;;;;;5081010;28;20048;-69
2022/08/13 08:16:45;;;;;;;0.57;0.50;;;29.40;86.20;;;;;;5056282;28;20124;-69
2022/08/13 08:19:15;;;;;;;0.70;0.50;;;29.40;87.00;;;;;;5036291;28;20074;-69
2022/08/13 08:21:41;;;;;;;0.50;0.40;;;29.50;86.60;;;;;;5050721;28;20053;-69
2022/08/13 08:24:07;;;;;;;0.95;0.63;;;29.40;85.40;;;;;;5051124;28;20470;-69
2022/08/13 08:26:35;;;;;;;0.60;0.50;;;29.30;86.30;;;;;;5048964;28;20052;-70
2022/08/13 08:29:05;;;;;;;1.10;0.60;;;29.40;85.40;;;;;;5051140;28;20436;-70
2022/08/13 08:31:33;;;;;;;0.90;0.70;;;29.50;85.40;;;;;;5032442;28;20052;-71
2022/08/13 08:34:01;;;;;;;0.70;0.65;;;29.30;83.40;;;;;;5051439;28;20549;-69
2022/08/13 08:36:28;;;;;;;0.50;0.50;;;29.30;84.60;;;;;;5084910;28;20352;-69
2022/08/13 08:44:32;;;;;;;0.70;0.55;;;29.70;85.20;;;;;;5084365;28;20478;-71
2022/08/13 08:47:00;;;;;;;0.50;0.43;;;29.80;85.20;;;;;;5051493;28;20044;-70
2022/08/13 08:49:26;;;;;;;0.93;0.50;;;29.90;84.90;;;;;;5047597;28;20036;-71
2022/08/13 08:51:53;;;;;;;0.82;0.55;;;30.00;84.20;;;;;;5050939;28;20040;-71
2022/08/13 08:54:22;;;;;;;0.68;0.50;;;30.20;84.50;;;;;;5052024;28;20036;-71
2022/08/13 08:56:49;;;;;;;1.08;0.50;;;30.30;83.90;;;;;;5052482;28;20404;-71
2022/08/13 08:59:16;;;;;;;0.93;0.50;;;30.30;83.00;;;;;;5052437;28;20040;-71
2022/08/13 09:01:44;;;;;;;1.15;0.50;;;30.50;83.00;;;;;;5050990;28;20048;-71
2022/08/13 09:04:11;;;;;;;0.60;0.52;;;30.40;82.50;;;;;;5083257;28;20098;-71
2022/08/13 09:06:38;;;;;;;0.68;0.60;;;30.50;82.20;;;;;;5051363;28;20040;-71
2022/08/13 09:09:07;;;;;;;0.50;0.50;;;30.50;82.60;;;;;;5052264;28;20384;-71
2022/08/13 09:11:36;;;;;;;0.43;0.40;;;30.60;81.90;;;;;;5085628;28;20138;-71
2022/08/13 09:14:05;;;;;;;0.50;0.50;;;30.90;82.30;;;;;;5069159;28;20444;-71
2022/08/13 09:16:33;;;;;;;0.85;0.60;;;30.80;80.40;;;;;;5052252;28;20056;-71
2022/08/13 09:18:59;;;;;;;0.93;0.60;;;30.70;81.30;;;;;;5051451;28;20053;-71
2022/08/13 09:21:25;;;;;;;0.60;0.57;;;30.80;81.80;;;;;;5049352;28;20040;-71
2022/08/13 09:23:52;;;;;;;0.70;0.50;;;30.90;82.20;;;;;;5048801;28;20049;-74
2022/08/13 09:26:20;;;;;;;0.95;0.40;;;31.00;81.30;;;;;;5084989;28;20052;-74
2022/08/13 09:28:46;;;;;;;0.30;0.30;;;31.10;80.90;;;;;;5051972;28;20087;-75
2022/08/13 09:31:13;;;;;;;0.57;0.40;;;31.00;80.50;;;;;;5052019;28;20071;-75
2022/08/13 09:33:39;;;;;;;0.45;0.43;;;31.30;81.30;;;;;;5084151;28;20045;-75
2022/08/13 09:36:09;;;;;;;0.60;0.50;;;31.50;81.30;;;;;;5088186;28;20079;-75
2022/08/13 09:38:36;;;;;;;0.55;0.50;;;31.50;80.90;;;;;;5055332;28;20044;-75
2022/08/13 09:41:14;;;;;;;0.50;0.50;;;31.40;79.60;;;;;;5055398;28;20053;-75
2022/08/13 09:43:41;;;;;;;0.70;0.60;;;31.40;78.50;;;;;;5055163;28;20041;-75
2022/08/13 09:46:09;;;;;;;2.05;0.50;;;31.40;79.40;;;;;;5055760;28;20052;-75
2022/08/13 09:48:35;;;;;;;0.50;0.38;;;31.50;79.30;;;;;;5055546;28;20454;-75
2022/08/13 09:51:02;;;;;;;0.77;0.50;;;31.50;79.30;;;;;;5055190;28;20140;-75
2022/08/13 09:53:28;;;;;;;0.47;0.47;;;31.60;78.10;;;;;;5054901;28;20036;-75
2022/08/13 09:55:55;;;;;;;1.13;0.50;;;31.60;78.00;;;;;;5055618;28;20079;-75
2022/08/13 09:58:22;;;;;;;0.45;0.43;;;31.80;78.30;;;;;;5072167;28;20076;-75
2022/08/13 10:00:49;;;;;;;0.45;0.40;;;31.70;77.70;;;;;;5055607;28;20048;-75
2022/08/13 10:03:17;;;;;;;0.52;0.50;;;31.90;78.50;;;;;;5054558;28;20040;-75
2022/08/13 10:05:43;;;;;;;0.30;0.30;;;31.80;78.30;;;;;;5055491;28;20454;-75
2022/08/13 10:08:16;;;;;;;0.60;0.52;;;32.00;77.50;;;;;;5055234;28;20574;-75
2022/08/13 10:10:44;;;;;;;0.50;0.32;;;31.80;77.50;;;;;;5051928;28;20178;-75
2022/08/13 10:13:10;;;;;;;0.32;0.32;;;31.90;77.30;;;;;;5038273;28;20086;-75
2022/08/13 10:15:37;;;;;;;1.05;0.47;;;32.10;77.00;;;;;;5055263;28;20055;-75
2022/08/13 10:18:04;;;;;;;0.75;0.43;;;32.10;77.50;;;;;;5054990;28;20044;-75
2022/08/13 10:20:38;;;;;;;0.55;0.50;;;32.40;76.50;;;;;;5054932;28;20127;-75
2022/08/13 10:23:07;;;;;;;0.90;0.55;;;32.20;76.40;;;;;;5054315;28;20858;-75
2022/08/13 10:25:33;;;;;;;2.17;0.80;;;32.30;76.60;;;;;;5066160;28;20118;-75
2022/08/13 10:27:59;;;;;;;0.73;0.73;;;32.50;77.20;;;;;;5068464;28;20037;-75
2022/08/13 10:30:27;;;;;;;0.75;0.52;;;32.60;76.20;;;;;;5068327;28;20036;-75
2022/08/13 10:32:55;;;;;;;0.77;0.57;;;32.30;74.60;;;;;;5052623;28;20451;-75
2022/08/13 10:35:27;;;;;;;0.68;0.40;;;32.30;75.60;;;;;;5054721;28;20048;-75
2022/08/13 10:37:56;;;;;;;0.30;0.30;;;32.30;76.00;;;;;;5071508;28;20143;-75
2022/08/13 10:40:23;;;;;;;1.10;0.50;;;32.30;75.60;;;;;;5054687;28;20119;-75
2022/08/13 10:42:51;;;;;;;1.10;0.50;;;32.40;75.60;;;;;;5036727;28;20041;-75
2022/08/13 10:45:19;;;;;;;0.50;0.50;;;32.30;75.70;;;;;;5053798;28;20480;-75
2022/08/13 10:47:52;;;;;;;0.50;0.50;;;32.40;75.00;;;;;;5036802;28;20123;-75
2022/08/13 10:50:26;;;;;;;0.43;0.40;;;32.50;74.40;;;;;;5034769;28;20076;-74
2022/08/13 10:52:52;;;;;;;0.70;0.50;;;32.40;73.30;;;;;;5034177;28;20045;-74
2022/08/13 10:55:18;;;;;;;0.50;0.50;;;32.40;74.20;;;;;;5054017;28;20123;-75
2022/08/13 10:57:46;;;;;;;0.57;0.45;;;32.80;73.90;;;;;;5087789;28;20043;-75
2022/08/13 11:00:16;;;;;;;0.40;0.40;;;32.80;74.90;;;;;;5070701;28;20077;-75
2022/08/13 11:02:42;;;;;;;0.38;0.38;;;32.90;74.30;;;;;;5053664;28;20123;-75
2022/08/13 11:05:11;;;;;;;0.40;0.40;;;32.80;73.20;;;;;;5053123;28;20048;-75
2022/08/13 11:07:38;;;;;;;0.70;0.50;;;32.90;73.90;;;;;;5054130;28;20059;-76
2022/08/13 11:10:08;;;;;;;0.85;0.50;;;32.70;72.70;;;;;;5054255;28;20041;-75
2022/08/13 11:12:42;;;;;;;2.75;0.40;;;32.80;73.80;;;;;;5051805;28;20044;-74
2022/08/13 11:15:09;;;;;;;0.52;0.40;;;32.90;73.70;;;;;;5053809;28;20047;-74
2022/08/13 11:17:35;;;;;;;0.77;0.52;;;33.00;72.60;;;;;;5087338;28;20036;-75
2022/08/13 11:20:05;;;;;;;0.60;0.52;;;33.00;73.40;;;;;;5053864;28;20050;-75
2022/08/13 11:22:32;;;;;;;0.73;0.40;;;33.20;73.10;;;;;;5024812;28;20452;-75
2022/08/13 11:25:00;;;;;;;0.47;0.40;;;32.90;71.40;;;;;;5030602;28;20049;-75
2022/08/13 11:27:26;;;;;;;0.40;0.40;;;32.80;72.00;;;;;;5014008;28;20420;-75
2022/08/13 11:29:56;;;;;;;0.70;0.50;;;32.90;71.70;;;;;;5063896;28;20449;-75
2022/08/13 11:32:21;;;;;;;0.40;0.40;;;32.90;72.70;;;;;;5030009;28;20090;-75
2022/08/13 11:34:47;;;;;;;0.43;0.40;;;33.00;72.40;;;;;;5030747;28;20117;-75
2022/08/13 11:37:13;;;;;;;0.40;0.40;;;33.20;73.10;;;;;;5030528;28;20485;-75
2022/08/13 11:39:39;;;;;;;1.13;0.55;;;33.30;71.90;;;;;;5030048;28;20409;-75
2022/08/13 11:42:05;;;;;;;0.40;0.40;;;33.00;71.50;;;;;;5029538;28;20045;-75
2022/08/13 11:44:30;;;;;;;0.60;0.50;;;33.20;72.70;;;;;;5030366;28;20183;-75
2022/08/13 11:46:56;;;;;;;0.30;0.30;;;33.20;71.60;;;;;;5030150;28;20132;-75
2022/08/13 11:49:22;;;;;;;0.40;0.40;;;33.50;72.00;;;;;;5043470;28;20095;-75
2022/08/13 11:51:48;;;;;;;0.70;0.50;;;33.60;72.00;;;;;;5040413;28;20269;-75
2022/08/13 11:54:15;;;;;;;0.90;0.43;;;33.70;71.40;;;;;;5030209;28;20573;-75
2022/08/13 11:56:40;;;;;;;0.50;0.40;;;33.80;72.30;;;;;;5030407;28;20053;-75
2022/08/13 11:59:06;;;;;;;0.52;0.43;;;33.80;71.80;;;;;;5028940;28;20044;-75
2022/08/13 12:01:32;;;;;;;1.20;0.70;;;33.60;71.10;;;;;;5046086;28;20049;-75
2022/08/13 12:03:58;;;;;;;0.73;0.60;;;33.40;70.40;;;;;;5028551;28;20084;-83
2022/08/13 12:06:24;;;;;;;0.40;0.40;;;33.50;70.80;;;;;;5029058;28;20045;-76
2022/08/13 12:08:49;;;;;;;0.40;0.40;;;33.60;70.50;;;;;;5027183;28;20069;-71
2022/08/13 12:11:15;;;;;;;0.30;0.30;;;33.60;70.30;;;;;;5030945;28;20037;-71
2022/08/13 12:13:41;;;;;;;0.40;0.40;;;33.80;71.20;;;;;;5024511;28;20037;-72
2022/08/13 12:16:07;;;;;;;2.35;0.50;;;33.80;69.80;;;;;;5029266;28;20826;-72
2022/08/13 12:18:33;;;;;;;0.90;0.60;;;33.60;69.70;;;;;;5027764;28;20059;-72
2022/08/13 12:20:59;;;;;;;0.60;0.50;;;33.40;69.80;;;;;;5028742;28;20523;-72
2022/08/13 12:23:24;;;;;;;0.50;0.47;;;33.30;70.40;;;;;;5026775;28;20053;-72
2022/08/13 12:25:50;;;;;;;0.50;0.47;;;33.30;69.40;;;;;;5058444;28;20148;-72
2022/08/13 12:28:20;;;;;;;0.50;0.50;;;33.40;69.80;;;;;;5060656;28;20073;-72
2022/08/13 12:30:53;;;;;;;0.60;0.50;;;33.40;70.00;;;;;;5027099;28;20075;-71
2022/08/13 12:33:20;;;;;;;0.60;0.50;;;33.50;70.40;;;;;;5026011;28;20081;-70
2022/08/13 12:35:46;;;;;;;0.60;0.50;;;33.50;69.30;;;;;;5026773;28;20087;-74
2022/08/13 12:38:13;;;;;;;1.92;0.47;;;33.50;69.00;;;;;;5029391;28;20037;-74
2022/08/13 12:40:42;;;;;;;1.13;0.50;;;33.70;69.20;;;;;;5032233;28;20033;-74
2022/08/13 12:43:08;;;;;;;0.50;0.50;;;33.50;68.50;;;;;;5061547;28;20112;-74
2022/08/13 12:45:35;;;;;;;0.47;0.47;;;33.70;69.30;;;;;;5041799;28;20650;-74
2022/08/13 12:48:12;;;;;;;0.40;0.40;;;33.90;68.90;;;;;;5012781;28;20045;-74
2022/08/13 12:50:39;;;;;;;0.85;0.40;;;33.90;69.20;;;;;;5008714;28;20052;-72
2022/08/13 12:53:05;;;;;;;0.30;0.30;;;34.00;68.90;;;;;;5025806;28;20464;-72
2022/08/13 12:55:35;;;;;;;0.57;0.40;;;34.10;69.60;;;;;;5024591;28;20056;-71
2022/08/13 12:58:20;;;;;;;0.65;0.63;;;34.10;69.40;;;;;;5024339;28;20179;-72
2022/08/13 13:00:51;;;;;;;0.73;0.50;;;34.20;69.70;;;;;;5052436;28;20117;-73
2022/08/13 13:03:18;;;;;;;0.55;0.50;;;34.00;69.00;;;;;;5028099;28;20469;-73
2022/08/13 13:05:46;;;;;;;0.73;0.50;;;34.00;69.00;;;;;;5027841;28;20038;-73
2022/08/13 13:08:20;;;;;;;1.20;0.50;;;34.20;69.00;;;;;;5028631;28;20048;-74
2022/08/13 13:10:47;;;;;;;0.40;0.40;;;34.20;68.40;;;;;;5027279;28;20030;-70
2022/08/13 13:13:18;;;;;;;0.85;0.50;;;34.40;70.00;;;;;;5048954;28;20042;-71
2022/08/13 13:15:44;;;;;;;0.68;0.50;;;34.30;68.40;;;;;;5028907;28;20457;-71